sensor_id;sensor_type;location;lat;lon;timestamp;temperature;humidity
21047;DHT22;10682;50.874;3.656;2023-08-30T00:01:29;12.90;99.90
21047;DHT22;10682;50.874;3.656;2023-08-30T00:03:56;12.90;99.90
21047;DHT22;10682;50.874;3.656;2023-08-30T00:06:24;12.90;99.90
21047;DHT22;10682;50.874;3.656;2023-08-30T00:08:51;12.90;99.90
21047;DHT22;10682;50.874;3.656;2023-08-30T00:11:18;12.90;99.90
21047;DHT22;10682;50.874;3.656;2023-08-30T00:13:45;12.90;99.90
21047;DHT22;10682;50.874;3.656;2023-08-30T00:16:14;12.90;99.90
21047;DHT22;10682;50.874;3.656;2023-08-30T00:18:43;12.90;99.90
21047;DHT22;10682;50.874;3.656;2023-08-30T00:21:13;13.00;99.90
21047;DHT22;10682;50.874;3.656;2023-08-30T00:23:40;13.00;99.90
21047;DHT22;10682;50.874;3.656;2023-08-30T00:26:07;13.00;99.90
21047;DHT22;10682;50.874;3.656;2023-08-30T00:28:34;13.00;99.90
21047;DHT22;10682;50.874;3.656;2023-08-30T00:31:01;13.00;99.90
21047;DHT22;10682;50.874;3.656;2023-08-30T00:33:28;13.10;99.90
21047;DHT22;10682;50.874;3.656;2023-08-30T00:35:57;13.10;99.90
21047;DHT22;10682;50.874;3.656;2023-08-30T00:38:26;13.10;99.90
21047;DHT22;10682;50.874;3.656;2023-08-30T00:40:54;13.20;99.90
21047;DHT22;10682;50.874;3.656;2023-08-30T00:43:21;13.20;99.90
21047;DHT22;10682;50.874;3.656;2023-08-30T00:45:48;13.20;99.90
21047;DHT22;10682;50.874;3.656;2023-08-30T00:48:17;13.20;99.90
21047;DHT22;10682;50.874;3.656;2023-08-30T00:50:46;13.10;99.90
21047;DHT22;10682;50.874;3.656;2023-08-30T00:53:13;13.10;99.90
21047;DHT22;10682;50.874;3.656;2023-08-30T00:55:42;13.10;99.90
21047;DHT22;10682;50.874;3.656;2023-08-30T00:58:10;13.00;99.90
21047;DHT22;10682;50.874;3.656;2023-08-30T01:00:38;13.00;99.90
21047;DHT22;10682;50.874;3.656;2023-08-30T01:03:06;13.00;99.90
21047;DHT22;10682;50.874;3.656;2023-08-30T01:05:37;12.90;99.90
21047;DHT22;10682;50.874;3.656;2023-08-30T01:08:04;12.90;99.90
21047;DHT22;10682;50.874;3.656;2023-08-30T01:10:51;12.90;99.90
21047;DHT22;10682;50.874;3.656;2023-08-30T01:13:22;12.90;99.90
21047;DHT22;10682;50.874;3.656;2023-08-30T01:15:51;12.90;99.90
21047;DHT22;10682;50.874;3.656;2023-08-30T01:18:20;12.90;99.90
21047;DHT22;10682;50.874;3.656;2023-08-30T01:20:50;12.80;99.90
21047;DHT22;10682;50.874;3.656;2023-08-30T01:23:42;12.80;99.90
21047;DHT22;10682;50.874;3.656;2023-08-30T01:26:43;12.80;99.90
21047;DHT22;10682;50.874;3.656;2023-08-30T01:29:13;12.70;99.90
21047;DHT22;10682;50.874;3.656;2023-08-30T01:31:42;12.60;99.90
21047;DHT22;10682;50.874;3.656;2023-08-30T01:34:10;12.70;99.90
21047;DHT22;10682;50.874;3.656;2023-08-30T01:36:41;12.70;99.90
21047;DHT22;10682;50.874;3.656;2023-08-30T01:39:10;12.80;99.90
21047;DHT22;10682;50.874;3.656;2023-08-30T01:41:39;12.80;99.90
21047;DHT22;10682;50.874;3.656;2023-08-30T01:44:08;12.90;99.90
21047;DHT22;10682;50.874;3.656;2023-08-30T01:46:37;13.00;99.90
21047;DHT22;10682;50.874;3.656;2023-08-30T01:49:06;13.10;99.90
21047;DHT22;10682;50.874;3.656;2023-08-30T01:51:35;13.20;99.90
21047;DHT22;10682;50.874;3.656;2023-08-30T01:54:04;13.30;99.90
21047;DHT22;10682;50.874;3.656;2023-08-30T01:56:33;13.40;99.90
21047;DHT22;10682;50.874;3.656;2023-08-30T01:59:00;13.50;99.90
21047;DHT22;10682;50.874;3.656;2023-08-30T02:01:27;13.50;99.90
21047;DHT22;10682;50.874;3.656;2023-08-30T02:03:54;13.60;99.90
21047;DHT22;10682;50.874;3.656;2023-08-30T02:10:00;13.70;99.90
21047;DHT22;10682;50.874;3.656;2023-08-30T02:12:39;13.80;99.90
21047;DHT22;10682;50.874;3.656;2023-08-30T02:15:13;13.80;99.90
21047;DHT22;10682;50.874;3.656;2023-08-30T02:17:41;13.90;99.90
21047;DHT22;10682;50.874;3.656;2023-08-30T02:20:09;13.90;99.90
21047;DHT22;10682;50.874;3.656;2023-08-30T02:22:36;13.90;99.90
21047;DHT22;10682;50.874;3.656;2023-08-30T02:25:04;14.00;99.90
21047;DHT22;10682;50.874;3.656;2023-08-30T02:27:32;14.00;99.90
21047;DHT22;10682;50.874;3.656;2023-08-30T02:29:59;14.00;99.90
21047;DHT22;10682;50.874;3.656;2023-08-30T02:32:26;14.10;99.90
21047;DHT22;10682;50.874;3.656;2023-08-30T02:34:53;14.10;99.90
21047;DHT22;10682;50.874;3.656;2023-08-30T02:37:20;14.20;99.90
21047;DHT22;10682;50.874;3.656;2023-08-30T02:39:47;14.20;99.90
21047;DHT22;10682;50.874;3.656;2023-08-30T02:42:15;14.20;99.90
21047;DHT22;10682;50.874;3.656;2023-08-30T02:44:42;14.20;99.90
21047;DHT22;10682;50.874;3.656;2023-08-30T02:47:09;14.30;99.90
21047;DHT22;10682;50.874;3.656;2023-08-30T02:49:36;14.30;99.90
21047;DHT22;10682;50.874;3.656;2023-08-30T02:52:03;14.30;99.90
21047;DHT22;10682;50.874;3.656;2023-08-30T02:54:30;14.40;99.90
21047;DHT22;10682;50.874;3.656;2023-08-30T02:56:57;14.40;99.90
21047;DHT22;10682;50.874;3.656;2023-08-30T02:59:24;14.40;99.90
21047;DHT22;10682;50.874;3.656;2023-08-30T03:01:51;14.30;99.90
21047;DHT22;10682;50.874;3.656;2023-08-30T03:04:19;14.40;99.90
21047;DHT22;10682;50.874;3.656;2023-08-30T03:06:46;14.30;99.90
21047;DHT22;10682;50.874;3.656;2023-08-30T03:09:13;14.30;99.90
21047;DHT22;10682;50.874;3.656;2023-08-30T03:11:41;14.30;99.90
21047;DHT22;10682;50.874;3.656;2023-08-30T03:14:08;14.30;99.90
21047;DHT22;10682;50.874;3.656;2023-08-30T03:16:35;14.30;99.90
21047;DHT22;10682;50.874;3.656;2023-08-30T03:19:02;14.30;99.90
21047;DHT22;10682;50.874;3.656;2023-08-30T03:21:30;14.20;99.90
21047;DHT22;10682;50.874;3.656;2023-08-30T03:23:57;14.20;99.90
21047;DHT22;10682;50.874;3.656;2023-08-30T03:26:24;14.10;99.90
21047;DHT22;10682;50.874;3.656;2023-08-30T03:28:51;14.00;99.90
21047;DHT22;10682;50.874;3.656;2023-08-30T03:31:21;14.00;99.90
21047;DHT22;10682;50.874;3.656;2023-08-30T03:33:49;14.00;99.90
21047;DHT22;10682;50.874;3.656;2023-08-30T03:36:17;13.90;99.90
21047;DHT22;10682;50.874;3.656;2023-08-30T03:38:45;13.90;99.90
21047;DHT22;10682;50.874;3.656;2023-08-30T03:41:13;13.90;99.90
21047;DHT22;10682;50.874;3.656;2023-08-30T03:43:43;13.90;99.90
21047;DHT22;10682;50.874;3.656;2023-08-30T03:46:12;13.90;99.90
21047;DHT22;10682;50.874;3.656;2023-08-30T03:48:39;13.90;99.90
21047;DHT22;10682;50.874;3.656;2023-08-30T03:51:07;13.80;99.90
21047;DHT22;10682;50.874;3.656;2023-08-30T03:53:34;13.80;99.90
21047;DHT22;10682;50.874;3.656;2023-08-30T03:56:06;13.80;99.90
21047;DHT22;10682;50.874;3.656;2023-08-30T03:58:35;13.80;99.90
21047;DHT22;10682;50.874;3.656;2023-08-30T04:01:06;13.90;99.90
21047;DHT22;10682;50.874;3.656;2023-08-30T04:03:35;13.90;99.90
21047;DHT22;10682;50.874;3.656;2023-08-30T04:06:03;13.90;99.90
21047;DHT22;10682;50.874;3.656;2023-08-30T04:08:31;13.90;99.90
21047;DHT22;10682;50.874;3.656;2023-08-30T04:11:01;13.90;99.90
21047;DHT22;10682;50.874;3.656;2023-08-30T04:13:31;13.90;99.90
21047;DHT22;10682;50.874;3.656;2023-08-30T04:16:06;13.90;99.90
21047;DHT22;10682;50.874;3.656;2023-08-30T04:18:40;13.90;99.90
21047;DHT22;10682;50.874;3.656;2023-08-30T04:21:07;13.90;99.90
21047;DHT22;10682;50.874;3.656;2023-08-30T04:23:40;13.90;99.90
21047;DHT22;10682;50.874;3.656;2023-08-30T04:26:08;13.90;99.90
21047;DHT22;10682;50.874;3.656;2023-08-30T04:28:35;13.90;99.90
21047;DHT22;10682;50.874;3.656;2023-08-30T04:31:02;13.90;99.90
21047;DHT22;10682;50.874;3.656;2023-08-30T04:33:30;14.00;99.90
21047;DHT22;10682;50.874;3.656;2023-08-30T04:35:57;14.00;99.90
21047;DHT22;10682;50.874;3.656;2023-08-30T04:38:28;14.00;99.90
21047;DHT22;10682;50.874;3.656;2023-08-30T04:40:58;14.00;99.90
21047;DHT22;10682;50.874;3.656;2023-08-30T04:43:29;14.00;99.90
21047;DHT22;10682;50.874;3.656;2023-08-30T04:45:57;14.10;99.90
21047;DHT22;10682;50.874;3.656;2023-08-30T04:48:24;14.10;99.90
21047;DHT22;10682;50.874;3.656;2023-08-30T04:50:59;14.10;99.90
21047;DHT22;10682;50.874;3.656;2023-08-30T04:53:27;14.10;99.90
21047;DHT22;10682;50.874;3.656;2023-08-30T04:55:54;14.10;99.90
21047;DHT22;10682;50.874;3.656;2023-08-30T04:58:22;14.20;99.90
21047;DHT22;10682;50.874;3.656;2023-08-30T05:00:50;14.20;99.90
21047;DHT22;10682;50.874;3.656;2023-08-30T05:03:17;14.20;99.90
21047;DHT22;10682;50.874;3.656;2023-08-30T05:05:47;14.20;99.90
21047;DHT22;10682;50.874;3.656;2023-08-30T05:08:14;14.20;99.90
21047;DHT22;10682;50.874;3.656;2023-08-30T05:10:41;14.20;99.90
21047;DHT22;10682;50.874;3.656;2023-08-30T05:13:09;14.30;99.90
21047;DHT22;10682;50.874;3.656;2023-08-30T05:15:37;14.20;99.90
21047;DHT22;10682;50.874;3.656;2023-08-30T05:18:04;14.20;99.90
21047;DHT22;10682;50.874;3.656;2023-08-30T05:20:31;14.20;99.90
21047;DHT22;10682;50.874;3.656;2023-08-30T05:22:58;14.20;99.90
21047;DHT22;10682;50.874;3.656;2023-08-30T05:25:26;14.20;99.90
21047;DHT22;10682;50.874;3.656;2023-08-30T05:27:53;14.30;99.90
21047;DHT22;10682;50.874;3.656;2023-08-30T05:30:20;14.20;99.90
21047;DHT22;10682;50.874;3.656;2023-08-30T05:32:47;14.20;99.90
21047;DHT22;10682;50.874;3.656;2023-08-30T05:35:15;14.20;99.90
21047;DHT22;10682;50.874;3.656;2023-08-30T05:37:42;14.20;99.90
21047;DHT22;10682;50.874;3.656;2023-08-30T05:40:10;14.20;99.90
21047;DHT22;10682;50.874;3.656;2023-08-30T05:42:37;14.20;99.90
21047;DHT22;10682;50.874;3.656;2023-08-30T05:45:04;14.20;99.90
21047;DHT22;10682;50.874;3.656;2023-08-30T05:47:32;14.20;99.90
21047;DHT22;10682;50.874;3.656;2023-08-30T05:49:59;14.20;99.90
21047;DHT22;10682;50.874;3.656;2023-08-30T05:52:26;14.20;99.90
21047;DHT22;10682;50.874;3.656;2023-08-30T05:54:53;14.20;99.90
21047;DHT22;10682;50.874;3.656;2023-08-30T05:57:20;14.10;99.90
21047;DHT22;10682;50.874;3.656;2023-08-30T05:59:49;14.20;99.90
21047;DHT22;10682;50.874;3.656;2023-08-30T06:02:16;14.20;99.90
21047;DHT22;10682;50.874;3.656;2023-08-30T06:04:43;14.30;99.90
21047;DHT22;10682;50.874;3.656;2023-08-30T06:07:10;14.30;99.90
21047;DHT22;10682;50.874;3.656;2023-08-30T06:09:37;14.30;99.90
21047;DHT22;10682;50.874;3.656;2023-08-30T06:12:05;14.30;99.90
21047;DHT22;10682;50.874;3.656;2023-08-30T06:14:33;14.30;99.90
21047;DHT22;10682;50.874;3.656;2023-08-30T06:17:00;14.40;99.90
21047;DHT22;10682;50.874;3.656;2023-08-30T06:19:27;14.30;99.90
21047;DHT22;10682;50.874;3.656;2023-08-30T06:21:55;14.30;99.90
21047;DHT22;10682;50.874;3.656;2023-08-30T06:24:22;14.30;99.90
21047;DHT22;10682;50.874;3.656;2023-08-30T06:26:49;14.40;99.90
21047;DHT22;10682;50.874;3.656;2023-08-30T06:29:16;14.40;99.90
21047;DHT22;10682;50.874;3.656;2023-08-30T06:31:43;14.40;99.90
21047;DHT22;10682;50.874;3.656;2023-08-30T06:34:12;14.40;99.90
21047;DHT22;10682;50.874;3.656;2023-08-30T06:36:39;14.40;99.90
21047;DHT22;10682;50.874;3.656;2023-08-30T06:39:06;14.40;99.90
21047;DHT22;10682;50.874;3.656;2023-08-30T06:41:33;14.40;99.90
21047;DHT22;10682;50.874;3.656;2023-08-30T06:44:00;14.40;99.90
21047;DHT22;10682;50.874;3.656;2023-08-30T06:46:27;14.40;99.90
21047;DHT22;10682;50.874;3.656;2023-08-30T06:48:54;14.40;99.90
21047;DHT22;10682;50.874;3.656;2023-08-30T06:51:21;14.50;99.90
21047;DHT22;10682;50.874;3.656;2023-08-30T06:53:48;14.50;99.90
21047;DHT22;10682;50.874;3.656;2023-08-30T06:56:15;14.50;99.90
21047;DHT22;10682;50.874;3.656;2023-08-30T06:58:42;14.50;99.90
21047;DHT22;10682;50.874;3.656;2023-08-30T07:01:10;14.50;99.90
21047;DHT22;10682;50.874;3.656;2023-08-30T07:03:37;14.50;99.90
21047;DHT22;10682;50.874;3.656;2023-08-30T07:06:06;14.60;99.90
21047;DHT22;10682;50.874;3.656;2023-08-30T07:08:34;14.60;99.90
21047;DHT22;10682;50.874;3.656;2023-08-30T07:11:01;14.60;99.90
21047;DHT22;10682;50.874;3.656;2023-08-30T07:13:28;14.70;99.90
21047;DHT22;10682;50.874;3.656;2023-08-30T07:15:56;14.80;99.90
21047;DHT22;10682;50.874;3.656;2023-08-30T07:18:23;14.80;99.90
21047;DHT22;10682;50.874;3.656;2023-08-30T07:20:50;14.80;99.90
21047;DHT22;10682;50.874;3.656;2023-08-30T07:23:20;14.90;99.90
21047;DHT22;10682;50.874;3.656;2023-08-30T07:25:47;15.00;99.90
21047;DHT22;10682;50.874;3.656;2023-08-30T07:28:14;15.10;99.90
21047;DHT22;10682;50.874;3.656;2023-08-30T07:30:41;15.10;99.90
21047;DHT22;10682;50.874;3.656;2023-08-30T07:33:08;15.20;99.90
21047;DHT22;10682;50.874;3.656;2023-08-30T07:35:35;15.30;99.90
21047;DHT22;10682;50.874;3.656;2023-08-30T07:38:02;15.40;99.90
21047;DHT22;10682;50.874;3.656;2023-08-30T07:40:29;15.40;99.90
21047;DHT22;10682;50.874;3.656;2023-08-30T07:42:57;15.30;99.90
21047;DHT22;10682;50.874;3.656;2023-08-30T07:45:26;15.40;99.90
21047;DHT22;10682;50.874;3.656;2023-08-30T07:47:53;15.40;99.90
21047;DHT22;10682;50.874;3.656;2023-08-30T07:50:20;15.50;99.90
21047;DHT22;10682;50.874;3.656;2023-08-30T07:52:48;15.50;99.90
21047;DHT22;10682;50.874;3.656;2023-08-30T07:55:15;15.60;99.90
21047;DHT22;10682;50.874;3.656;2023-08-30T07:57:42;15.60;99.90
21047;DHT22;10682;50.874;3.656;2023-08-30T08:00:10;15.70;99.90
21047;DHT22;10682;50.874;3.656;2023-08-30T08:02:37;15.60;99.90
21047;DHT22;10682;50.874;3.656;2023-08-30T08:05:06;15.60;99.90
21047;DHT22;10682;50.874;3.656;2023-08-30T08:07:33;15.70;99.90
21047;DHT22;10682;50.874;3.656;2023-08-30T08:10:00;15.80;99.90
21047;DHT22;10682;50.874;3.656;2023-08-30T08:12:27;15.80;99.90
21047;DHT22;10682;50.874;3.656;2023-08-30T08:14:54;15.80;99.90
21047;DHT22;10682;50.874;3.656;2023-08-30T08:17:21;15.90;99.90
21047;DHT22;10682;50.874;3.656;2023-08-30T08:19:48;16.00;99.90
21047;DHT22;10682;50.874;3.656;2023-08-30T08:22:15;16.50;99.90
21047;DHT22;10682;50.874;3.656;2023-08-30T08:24:43;16.70;99.90
21047;DHT22;10682;50.874;3.656;2023-08-30T08:27:12;17.00;99.90
21047;DHT22;10682;50.874;3.656;2023-08-30T08:29:41;17.00;99.90
21047;DHT22;10682;50.874;3.656;2023-08-30T08:32:08;17.00;99.90
21047;DHT22;10682;50.874;3.656;2023-08-30T08:34:35;17.00;99.90
21047;DHT22;10682;50.874;3.656;2023-08-30T08:37:02;16.90;99.90
21047;DHT22;10682;50.874;3.656;2023-08-30T08:39:30;16.80;99.90
21047;DHT22;10682;50.874;3.656;2023-08-30T08:41:59;16.80;99.90
21047;DHT22;10682;50.874;3.656;2023-08-30T08:44:27;16.80;99.90
21047;DHT22;10682;50.874;3.656;2023-08-30T08:46:59;16.70;99.90
21047;DHT22;10682;50.874;3.656;2023-08-30T08:49:27;16.70;99.90
21047;DHT22;10682;50.874;3.656;2023-08-30T08:51:56;16.70;99.90
21047;DHT22;10682;50.874;3.656;2023-08-30T08:54:24;16.80;99.90
21047;DHT22;10682;50.874;3.656;2023-08-30T08:56:53;16.80;99.90
21047;DHT22;10682;50.874;3.656;2023-08-30T08:59:21;17.00;99.90
21047;DHT22;10682;50.874;3.656;2023-08-30T09:01:49;17.20;99.90
21047;DHT22;10682;50.874;3.656;2023-08-30T09:04:16;17.40;99.90
21047;DHT22;10682;50.874;3.656;2023-08-30T09:06:45;17.70;99.90
21047;DHT22;10682;50.874;3.656;2023-08-30T09:09:14;18.00;99.90
21047;DHT22;10682;50.874;3.656;2023-08-30T09:11:41;18.20;99.90
21047;DHT22;10682;50.874;3.656;2023-08-30T09:14:11;18.60;99.90
21047;DHT22;10682;50.874;3.656;2023-08-30T09:16:38;18.70;99.90
21047;DHT22;10682;50.874;3.656;2023-08-30T09:19:07;18.60;99.90
21047;DHT22;10682;50.874;3.656;2023-08-30T09:21:59;18.40;99.90
21047;DHT22;10682;50.874;3.656;2023-08-30T09:24:39;18.30;99.90
21047;DHT22;10682;50.874;3.656;2023-08-30T09:27:07;18.60;99.90
21047;DHT22;10682;50.874;3.656;2023-08-30T09:29:34;18.80;99.90
21047;DHT22;10682;50.874;3.656;2023-08-30T09:32:01;18.80;99.90
21047;DHT22;10682;50.874;3.656;2023-08-30T09:34:33;18.80;99.90
21047;DHT22;10682;50.874;3.656;2023-08-30T09:37:00;19.00;99.90
21047;DHT22;10682;50.874;3.656;2023-08-30T09:39:33;19.10;99.90
21047;DHT22;10682;50.874;3.656;2023-08-30T09:42:01;19.00;99.90
21047;DHT22;10682;50.874;3.656;2023-08-30T09:44:32;18.80;99.90
21047;DHT22;10682;50.874;3.656;2023-08-30T09:47:02;18.40;99.90
21047;DHT22;10682;50.874;3.656;2023-08-30T09:49:43;18.10;99.90
21047;DHT22;10682;50.874;3.656;2023-08-30T09:52:16;17.80;99.90
21047;DHT22;10682;50.874;3.656;2023-08-30T09:54:49;17.60;99.90
21047;DHT22;10682;50.874;3.656;2023-08-30T09:57:21;17.30;99.90
21047;DHT22;10682;50.874;3.656;2023-08-30T09:59:51;17.40;99.90
21047;DHT22;10682;50.874;3.656;2023-08-30T10:02:18;17.60;99.90
21047;DHT22;10682;50.874;3.656;2023-08-30T10:04:47;17.70;99.90
21047;DHT22;10682;50.874;3.656;2023-08-30T10:07:17;17.80;99.90
21047;DHT22;10682;50.874;3.656;2023-08-30T10:09:45;18.00;99.90
21047;DHT22;10682;50.874;3.656;2023-08-30T10:12:33;18.20;99.90
21047;DHT22;10682;50.874;3.656;2023-08-30T10:15:04;18.20;99.90
21047;DHT22;10682;50.874;3.656;2023-08-30T10:17:34;18.20;99.90
21047;DHT22;10682;50.874;3.656;2023-08-30T10:20:06;18.10;99.90
21047;DHT22;10682;50.874;3.656;2023-08-30T10:22:40;18.10;99.90
21047;DHT22;10682;50.874;3.656;2023-08-30T10:25:13;18.20;99.90
21047;DHT22;10682;50.874;3.656;2023-08-30T10:27:46;18.50;99.90
21047;DHT22;10682;50.874;3.656;2023-08-30T10:30:15;18.70;99.90
21047;DHT22;10682;50.874;3.656;2023-08-30T10:32:44;18.50;99.90
21047;DHT22;10682;50.874;3.656;2023-08-30T10:35:15;18.90;99.90
21047;DHT22;10682;50.874;3.656;2023-08-30T10:37:54;19.20;99.90
21047;DHT22;10682;50.874;3.656;2023-08-30T10:40:22;19.20;99.90
21047;DHT22;10682;50.874;3.656;2023-08-30T10:43:00;19.30;99.90
21047;DHT22;10682;50.874;3.656;2023-08-30T10:45:34;19.60;99.90
21047;DHT22;10682;50.874;3.656;2023-08-30T10:48:02;20.10;99.90
21047;DHT22;10682;50.874;3.656;2023-08-30T10:50:35;20.50;99.90
21047;DHT22;10682;50.874;3.656;2023-08-30T10:53:13;20.40;99.90
21047;DHT22;10682;50.874;3.656;2023-08-30T10:55:41;20.30;99.90
21047;DHT22;10682;50.874;3.656;2023-08-30T10:58:14;20.30;99.90
21047;DHT22;10682;50.874;3.656;2023-08-30T11:00:42;20.60;99.90
21047;DHT22;10682;50.874;3.656;2023-08-30T11:03:10;20.50;99.90
21047;DHT22;10682;50.874;3.656;2023-08-30T11:05:40;20.90;99.90
21047;DHT22;10682;50.874;3.656;2023-08-30T11:08:10;21.30;99.90
21047;DHT22;10682;50.874;3.656;2023-08-30T11:10:38;21.30;99.90
21047;DHT22;10682;50.874;3.656;2023-08-30T11:13:09;21.10;99.90
21047;DHT22;10682;50.874;3.656;2023-08-30T11:15:37;21.00;99.90
21047;DHT22;10682;50.874;3.656;2023-08-30T11:18:05;20.90;99.90
21047;DHT22;10682;50.874;3.656;2023-08-30T11:20:32;20.60;99.90
21047;DHT22;10682;50.874;3.656;2023-08-30T11:23:02;20.60;99.90
21047;DHT22;10682;50.874;3.656;2023-08-30T11:25:30;21.00;99.90
21047;DHT22;10682;50.874;3.656;2023-08-30T11:28:03;21.50;99.90
21047;DHT22;10682;50.874;3.656;2023-08-30T11:30:33;21.50;99.90
21047;DHT22;10682;50.874;3.656;2023-08-30T11:33:00;21.40;99.90
21047;DHT22;10682;50.874;3.656;2023-08-30T11:35:30;21.00;99.90
21047;DHT22;10682;50.874;3.656;2023-08-30T11:37:57;20.50;99.90
21047;DHT22;10682;50.874;3.656;2023-08-30T11:40:24;20.30;99.90
21047;DHT22;10682;50.874;3.656;2023-08-30T11:42:51;19.90;99.90
21047;DHT22;10682;50.874;3.656;2023-08-30T11:45:21;19.70;99.90
21047;DHT22;10682;50.874;3.656;2023-08-30T11:47:48;20.00;99.90
21047;DHT22;10682;50.874;3.656;2023-08-30T11:50:15;20.50;99.90
21047;DHT22;10682;50.874;3.656;2023-08-30T11:52:44;20.80;99.90
21047;DHT22;10682;50.874;3.656;2023-08-30T11:55:13;20.80;99.90
21047;DHT22;10682;50.874;3.656;2023-08-30T11:57:44;20.40;99.90
21047;DHT22;10682;50.874;3.656;2023-08-30T12:00:12;20.00;99.90
21047;DHT22;10682;50.874;3.656;2023-08-30T12:02:40;20.00;99.90
21047;DHT22;10682;50.874;3.656;2023-08-30T12:05:11;20.40;99.90
21047;DHT22;10682;50.874;3.656;2023-08-30T12:07:39;20.90;99.90
21047;DHT22;10682;50.874;3.656;2023-08-30T12:10:08;21.20;99.90
21047;DHT22;10682;50.874;3.656;2023-08-30T12:12:44;21.50;99.90
21047;DHT22;10682;50.874;3.656;2023-08-30T12:15:14;21.90;99.90
21047;DHT22;10682;50.874;3.656;2023-08-30T12:17:42;21.50;99.90
21047;DHT22;10682;50.874;3.656;2023-08-30T12:20:18;21.10;99.90
21047;DHT22;10682;50.874;3.656;2023-08-30T12:22:47;21.30;99.90
21047;DHT22;10682;50.874;3.656;2023-08-30T12:25:21;21.40;99.90
21047;DHT22;10682;50.874;3.656;2023-08-30T12:27:53;21.40;99.90
21047;DHT22;10682;50.874;3.656;2023-08-30T12:30:20;21.60;99.90
21047;DHT22;10682;50.874;3.656;2023-08-30T12:32:48;21.90;99.90
21047;DHT22;10682;50.874;3.656;2023-08-30T12:35:16;21.70;99.90
21047;DHT22;10682;50.874;3.656;2023-08-30T12:37:45;21.10;99.90
21047;DHT22;10682;50.874;3.656;2023-08-30T12:40:13;20.60;99.90
21047;DHT22;10682;50.874;3.656;2023-08-30T12:42:40;20.40;99.90
21047;DHT22;10682;50.874;3.656;2023-08-30T12:45:08;20.70;99.90
21047;DHT22;10682;50.874;3.656;2023-08-30T12:47:35;20.70;99.90
21047;DHT22;10682;50.874;3.656;2023-08-30T12:50:03;20.50;99.90
21047;DHT22;10682;50.874;3.656;2023-08-30T12:52:30;20.20;99.90
21047;DHT22;10682;50.874;3.656;2023-08-30T12:54:57;20.00;99.90
21047;DHT22;10682;50.874;3.656;2023-08-30T12:57:24;19.90;99.90
21047;DHT22;10682;50.874;3.656;2023-08-30T12:59:52;19.90;99.90
21047;DHT22;10682;50.874;3.656;2023-08-30T13:02:20;20.20;99.90
21047;DHT22;10682;50.874;3.656;2023-08-30T13:04:47;20.60;99.90
21047;DHT22;10682;50.874;3.656;2023-08-30T13:07:14;20.50;99.90
21047;DHT22;10682;50.874;3.656;2023-08-30T13:09:41;20.20;99.90
21047;DHT22;10682;50.874;3.656;2023-08-30T13:12:08;19.90;99.90
21047;DHT22;10682;50.874;3.656;2023-08-30T13:14:37;19.50;99.90
21047;DHT22;10682;50.874;3.656;2023-08-30T13:17:04;19.20;99.90
21047;DHT22;10682;50.874;3.656;2023-08-30T13:19:31;19.00;99.90
21047;DHT22;10682;50.874;3.656;2023-08-30T13:21:58;19.00;99.90
21047;DHT22;10682;50.874;3.656;2023-08-30T13:24:25;19.10;99.90
21047;DHT22;10682;50.874;3.656;2023-08-30T13:26:53;19.30;99.90
21047;DHT22;10682;50.874;3.656;2023-08-30T13:29:20;19.50;99.90
21047;DHT22;10682;50.874;3.656;2023-08-30T13:31:47;19.60;99.90
21047;DHT22;10682;50.874;3.656;2023-08-30T13:34:14;20.10;99.90
21047;DHT22;10682;50.874;3.656;2023-08-30T13:36:41;20.40;99.90
21047;DHT22;10682;50.874;3.656;2023-08-30T13:39:08;20.50;99.90
21047;DHT22;10682;50.874;3.656;2023-08-30T13:41:36;20.80;99.90
21047;DHT22;10682;50.874;3.656;2023-08-30T13:44:03;21.00;99.90
21047;DHT22;10682;50.874;3.656;2023-08-30T13:46:31;21.00;99.90
21047;DHT22;10682;50.874;3.656;2023-08-30T13:48:58;20.70;99.90
21047;DHT22;10682;50.874;3.656;2023-08-30T13:51:26;20.80;99.90
21047;DHT22;10682;50.874;3.656;2023-08-30T13:53:53;20.70;99.90
21047;DHT22;10682;50.874;3.656;2023-08-30T13:56:20;20.50;99.90
21047;DHT22;10682;50.874;3.656;2023-08-30T13:58:47;20.10;99.90
21047;DHT22;10682;50.874;3.656;2023-08-30T14:01:15;19.90;99.90
21047;DHT22;10682;50.874;3.656;2023-08-30T14:03:44;19.70;99.90
21047;DHT22;10682;50.874;3.656;2023-08-30T14:06:11;19.50;99.90
21047;DHT22;10682;50.874;3.656;2023-08-30T14:08:38;19.60;99.90
21047;DHT22;10682;50.874;3.656;2023-08-30T14:11:06;19.90;99.90
21047;DHT22;10682;50.874;3.656;2023-08-30T14:13:34;20.00;99.90
21047;DHT22;10682;50.874;3.656;2023-08-30T14:16:02;20.10;99.90
21047;DHT22;10682;50.874;3.656;2023-08-30T14:18:32;20.20;99.90
21047;DHT22;10682;50.874;3.656;2023-08-30T14:21:00;20.40;99.90
21047;DHT22;10682;50.874;3.656;2023-08-30T14:23:29;20.50;99.90
21047;DHT22;10682;50.874;3.656;2023-08-30T14:26:01;20.50;99.90
21047;DHT22;10682;50.874;3.656;2023-08-30T14:28:42;20.50;99.90
21047;DHT22;10682;50.874;3.656;2023-08-30T14:31:10;20.40;99.90
21047;DHT22;10682;50.874;3.656;2023-08-30T14:33:37;20.40;99.90
21047;DHT22;10682;50.874;3.656;2023-08-30T14:36:10;20.30;99.90
21047;DHT22;10682;50.874;3.656;2023-08-30T14:38:39;20.20;99.90
21047;DHT22;10682;50.874;3.656;2023-08-30T14:41:07;20.40;99.90
21047;DHT22;10682;50.874;3.656;2023-08-30T14:43:34;20.60;99.90
21047;DHT22;10682;50.874;3.656;2023-08-30T14:46:05;20.60;99.90
21047;DHT22;10682;50.874;3.656;2023-08-30T14:48:39;20.50;99.90
21047;DHT22;10682;50.874;3.656;2023-08-30T14:51:08;20.30;99.90
21047;DHT22;10682;50.874;3.656;2023-08-30T14:53:35;20.10;99.90
21047;DHT22;10682;50.874;3.656;2023-08-30T14:56:03;20.20;99.90
21047;DHT22;10682;50.874;3.656;2023-08-30T14:58:35;20.10;99.90
21047;DHT22;10682;50.874;3.656;2023-08-30T15:01:04;19.90;99.90
21047;DHT22;10682;50.874;3.656;2023-08-30T15:03:32;19.70;99.90
21047;DHT22;10682;50.874;3.656;2023-08-30T15:05:59;19.60;99.90
21047;DHT22;10682;50.874;3.656;2023-08-30T15:08:28;19.50;99.90
21047;DHT22;10682;50.874;3.656;2023-08-30T15:10:57;19.30;99.90
21047;DHT22;10682;50.874;3.656;2023-08-30T15:13:25;19.30;99.90
21047;DHT22;10682;50.874;3.656;2023-08-30T15:15:53;19.30;99.90
21047;DHT22;10682;50.874;3.656;2023-08-30T15:18:22;19.20;99.90
21047;DHT22;10682;50.874;3.656;2023-08-30T15:20:52;19.20;99.90
21047;DHT22;10682;50.874;3.656;2023-08-30T15:23:20;19.10;99.90
21047;DHT22;10682;50.874;3.656;2023-08-30T15:25:48;19.00;99.90
21047;DHT22;10682;50.874;3.656;2023-08-30T15:28:16;18.90;99.90
21047;DHT22;10682;50.874;3.656;2023-08-30T15:30:44;18.70;99.90
21047;DHT22;10682;50.874;3.656;2023-08-30T15:33:12;18.50;99.90
21047;DHT22;10682;50.874;3.656;2023-08-30T15:35:46;18.30;99.90
21047;DHT22;10682;50.874;3.656;2023-08-30T15:38:13;18.20;99.90
21047;DHT22;10682;50.874;3.656;2023-08-30T15:40:41;18.10;99.90
21047;DHT22;10682;50.874;3.656;2023-08-30T15:43:08;18.10;99.90